createdAt,value
2023-05-13T00:02:56.364Z,49.13
2023-05-13T00:06:00.749Z,49.30
2023-05-13T00:08:37.688Z,49.31
2023-05-13T00:11:13.405Z,49.89
2023-05-13T00:13:57.668Z,50.20
2023-05-13T00:17:00.149Z,50.48
2023-05-13T00:19:48.065Z,50.65
2023-05-13T00:22:41.788Z,50.70
2023-05-13T00:25:49.137Z,50.66
2023-05-13T00:28:50.678Z,50.66
2023-05-13T00:32:04.912Z,50.20
2023-05-13T00:34:50.532Z,49.86
2023-05-13T00:37:45.417Z,49.74
2023-05-13T00:40:48.019Z,49.43
2023-05-13T00:43:32.813Z,49.30
2023-05-13T00:46:09.400Z,49.40
2023-05-13T00:48:55.782Z,49.23
2023-05-13T00:52:04.190Z,49.72
2023-05-13T00:56:07.462Z,49.79
2023-05-13T00:59:34.520Z,49.91
2023-05-13T01:03:03.227Z,50.07
2023-05-13T01:14:34.024Z,50.42
2023-05-13T01:17:27.911Z,50.42
2023-05-13T01:20:05.534Z,50.57
2023-05-13T01:23:41.057Z,50.72
2023-05-13T01:26:24.278Z,50.81
2023-05-13T01:29:06.656Z,51.23
2023-05-13T01:32:15.991Z,51.74
2023-05-13T01:35:21.576Z,52.34
2023-05-13T01:38:03.254Z,52.52
2023-05-13T01:40:49.902Z,52.96
2023-05-13T01:43:22.597Z,53.54
2023-05-13T01:46:24.436Z,54.01
2023-05-13T01:48:59.211Z,54.01
2023-05-13T01:51:38.776Z,54.22
2023-05-13T01:54:26.801Z,54.56
2023-05-13T01:57:11.435Z,55.01
2023-05-13T01:59:49.075Z,55.37
2023-05-13T02:05:41.538Z,56.21
2023-05-13T02:09:05.732Z,57.33
2023-05-13T02:11:45.852Z,58.38
2023-05-13T02:14:46.716Z,59.28
2023-05-13T02:17:23.252Z,60.53
2023-05-13T02:20:20.120Z,61.34
2023-05-13T02:22:53.074Z,62.45
2023-05-13T02:25:39.828Z,62.70
2023-05-13T02:28:15.000Z,63.15
2023-05-13T02:31:12.235Z,63.66
2023-05-13T02:34:26.569Z,63.77
2023-05-13T02:37:25.434Z,64.00
2023-05-13T02:40:09.967Z,64.20
2023-05-13T02:43:18.280Z,64.31
2023-05-13T02:46:03.334Z,64.24
2023-05-13T02:48:58.771Z,64.42
2023-05-13T02:51:43.057Z,63.97
2023-05-13T02:54:20.875Z,63.77
2023-05-13T02:57:01.845Z,63.72
2023-05-13T03:00:08.727Z,63.40
2023-05-13T03:06:32.957Z,60.95
2023-05-13T03:12:36.071Z,58.52
2023-05-13T03:15:52.286Z,57.50
2023-05-13T03:18:37.931Z,57.15
2023-05-13T03:21:52.143Z,56.75
2023-05-13T03:24:29.150Z,55.90
2023-05-13T03:27:51.626Z,55.34
2023-05-13T03:30:57.684Z,54.84
2023-05-13T03:34:09.228Z,54.65
2023-05-13T03:36:52.623Z,54.64
2023-05-13T03:39:48.224Z,54.15
2023-05-13T03:43:18.696Z,53.44
2023-05-13T03:45:59.847Z,52.57
2023-05-13T03:48:31.285Z,52.58
2023-05-13T03:51:04.610Z,52.48
2023-05-13T03:53:38.772Z,51.98
2023-05-13T03:56:17.098Z,51.48
2023-05-13T03:58:49.567Z,51.08
2023-05-13T04:08:20.139Z,51.02
2023-05-13T04:11:21.405Z,51.15
2023-05-13T04:16:53.104Z,51.23
2023-05-13T04:22:25.692Z,50.68
2023-05-13T04:25:24.700Z,50.45
2023-05-13T04:28:57.212Z,50.58
2023-05-13T04:32:05.180Z,50.71
2023-05-13T04:46:46.728Z,49.10
2023-05-13T04:50:36.029Z,49.07
2023-05-13T04:53:58.430Z,49.27
2023-05-13T04:56:44.612Z,49.44
2023-05-13T05:00:02.292Z,49.46
2023-05-13T05:03:06.448Z,49.70
2023-05-13T05:06:17.185Z,49.94
2023-05-13T05:09:24.572Z,49.24
2023-05-13T05:19:57.638Z,45.60
2023-05-13T05:23:03.940Z,44.77
2023-05-13T05:26:20.484Z,44.39
2023-05-13T05:29:12.652Z,44.84
2023-05-13T05:31:59.821Z,45.01
2023-05-13T05:35:50.003Z,45.28
2023-05-13T05:38:45.050Z,45.10
2023-05-13T05:41:58.034Z,45.34
2023-05-13T05:44:48.618Z,45.08
2023-05-13T05:47:34.443Z,44.24
2023-05-13T05:50:39.027Z,43.96
2023-05-13T05:53:15.241Z,43.67
2023-05-13T05:56:58.165Z,43.34
2023-05-13T05:59:29.297Z,42.52
2023-05-13T06:05:26.458Z,41.68
2023-05-13T06:08:38.297Z,40.92
2023-05-13T06:11:19.835Z,39.96
2023-05-13T06:14:06.138Z,39.50
2023-05-13T06:17:00.459Z,39.21
2023-05-13T06:19:39.588Z,38.97
2023-05-13T06:22:44.343Z,38.28
2023-05-13T06:25:48.674Z,37.87
2023-05-13T06:29:30.341Z,37.18
2023-05-13T06:32:25.706Z,36.97
2023-05-13T06:35:14.948Z,36.65
2023-05-13T06:49:02.634Z,36.00
2023-05-13T06:51:58.800Z,35.82
2023-05-13T06:57:41.806Z,35.44
2023-05-13T07:01:12.487Z,35.25
2023-05-13T07:04:14.818Z,34.93
2023-05-13T07:07:30.411Z,34.47
2023-05-13T07:17:48.078Z,34.30
2023-05-13T07:21:24.542Z,34.54
2023-05-13T08:00:00.912Z,33.32
2023-05-13T08:26:52.030Z,32.42
2023-05-13T08:29:49.528Z,32.02
2023-05-13T08:36:41.043Z,31.11
2023-05-13T08:39:38.801Z,31.19
2023-05-13T08:49:41.868Z,30.21
2023-05-13T08:53:16.971Z,30.21
2023-05-13T08:56:33.029Z,29.74
2023-05-13T08:59:18.628Z,29.62
2023-05-13T09:06:46.282Z,30.19
2023-05-13T09:17:32.567Z,29.18
2023-05-13T09:21:07.980Z,29.08
2023-05-13T09:24:24.898Z,29.33
2023-05-13T09:38:53.908Z,30.09
2023-05-13T09:45:47.151Z,30.22
2023-05-13T09:49:07.652Z,30.31
2023-05-13T10:06:04.953Z,29.24
2023-05-13T10:10:02.574Z,28.85
2023-05-13T10:29:09.644Z,27.48
2023-05-13T10:39:26.036Z,26.04
2023-05-13T11:03:37.044Z,24.88
2023-05-13T11:10:05.450Z,25.09
2023-05-13T11:13:20.579Z,25.01
2023-05-13T11:16:01.659Z,25.02
2023-05-13T11:21:49.968Z,24.91
2023-05-13T11:24:36.224Z,24.59
2023-05-13T11:31:32.592Z,24.18
2023-05-13T11:34:47.063Z,24.39
2023-05-13T11:40:45.583Z,24.39
2023-05-13T11:43:53.301Z,24.14
2023-05-13T11:46:32.329Z,23.84
2023-05-13T11:49:30.174Z,24.08
2023-05-13T11:53:05.351Z,24.04
2023-05-13T11:56:16.850Z,24.22
2023-05-13T11:59:00.955Z,24.33
2023-05-13T12:01:39.562Z,24.09
2023-05-13T12:05:00.451Z,24.53
2023-05-13T12:08:23.634Z,24.48
2023-05-13T12:11:31.064Z,24.07
2023-05-13T12:18:18.609Z,23.45
2023-05-13T12:21:03.414Z,23.58
2023-05-13T12:24:02.526Z,23.68
2023-05-13T12:27:03.553Z,23.76
2023-05-13T12:29:50.632Z,23.78
2023-05-13T12:36:40.125Z,23.53
2023-05-13T12:43:00.648Z,23.46
2023-05-13T12:46:20.220Z,23.13
2023-05-13T12:50:01.037Z,23.54
2023-05-13T12:53:04.724Z,23.75
2023-05-13T12:56:18.648Z,23.92
2023-05-13T12:59:31.857Z,23.99
2023-05-13T13:10:36.426Z,23.60
2023-05-13T13:13:33.631Z,23.65
2023-05-13T13:16:39.696Z,23.67
2023-05-13T13:20:12.504Z,23.56
2023-05-13T13:23:36.812Z,23.34
2023-05-13T13:27:04.274Z,23.13
2023-05-13T13:36:48.681Z,22.66
2023-05-13T13:43:45.173Z,22.62
2023-05-13T13:59:32.745Z,22.05
2023-05-13T14:07:55.927Z,21.38
2023-05-13T14:18:48.879Z,21.26
2023-05-13T14:21:36.891Z,20.88
2023-05-13T14:29:31.233Z,20.87
2023-05-13T14:40:47.963Z,20.90
2023-05-13T14:47:42.034Z,20.87
2023-05-13T14:50:57.563Z,21.01
2023-05-13T14:54:02.768Z,21.40
2023-05-13T15:01:21.919Z,21.09
2023-05-13T15:04:33.545Z,21.10
2023-05-13T15:07:21.458Z,20.94
2023-05-13T15:10:14.799Z,20.96
2023-05-13T15:13:00.472Z,20.88
2023-05-13T15:16:00.221Z,20.75
2023-05-13T15:18:56.715Z,20.57
2023-05-13T15:21:45.908Z,20.71
2023-05-13T15:24:45.219Z,20.80
2023-05-13T15:28:13.804Z,21.02
2023-05-13T15:35:23.979Z,20.95
2023-05-13T15:38:25.681Z,20.90
2023-05-13T16:58:11.155Z,25.96
2023-05-13T17:01:25.262Z,26.16
2023-05-13T18:43:05.590Z,30.96
2023-05-13T18:50:07.293Z,31.31
2023-05-13T18:56:49.738Z,31.43
2023-05-13T19:03:18.564Z,31.56
2023-05-13T19:06:00.381Z,31.38
2023-05-13T19:09:20.940Z,30.65
2023-05-13T19:16:01.759Z,33.95
2023-05-13T19:26:39.828Z,33.58
2023-05-13T19:30:00.428Z,34.03
2023-05-13T19:36:12.274Z,34.12
2023-05-13T19:43:02.003Z,33.94
2023-05-13T19:45:39.922Z,33.95
2023-05-13T19:48:34.042Z,34.04
2023-05-13T19:54:54.292Z,33.92
2023-05-13T20:07:09.977Z,34.56
2023-05-13T20:10:06.561Z,34.55
2023-05-13T20:31:16.548Z,34.38
2023-05-13T20:38:57.529Z,35.64
2023-05-13T20:43:34.543Z,35.71
2023-05-13T20:46:29.274Z,35.37
2023-05-13T20:49:22.900Z,35.22
2023-05-13T20:53:12.086Z,35.29
2023-05-13T20:56:16.642Z,35.42
2023-05-13T20:59:17.285Z,35.32
2023-05-13T21:10:52.981Z,35.68
2023-05-13T21:15:04.228Z,35.61
2023-05-13T21:21:08.387Z,35.61
2023-05-13T21:23:57.732Z,35.41
2023-05-13T21:30:53.190Z,34.77
2023-05-13T21:59:06.263Z,35.45
2023-05-13T22:02:21.640Z,35.40
2023-05-13T22:05:44.619Z,35.35
2023-05-13T22:09:19.130Z,35.40
2023-05-13T22:12:12.704Z,35.63
2023-05-13T22:15:07.226Z,35.08
2023-05-13T22:21:19.622Z,34.43
2023-05-13T22:25:19.279Z,34.55
2023-05-13T22:35:02.656Z,35.54
2023-05-13T22:38:00.855Z,35.67
2023-05-13T22:41:38.151Z,35.76
2023-05-13T22:45:23.239Z,34.85
2023-05-13T22:48:45.205Z,35.30
2023-05-13T22:55:22.119Z,37.02
2023-05-13T22:59:04.141Z,37.59
2023-05-13T23:01:54.365Z,37.89
2023-05-13T23:04:59.847Z,37.71
2023-05-13T23:14:25.587Z,37.01
2023-05-13T23:17:14.546Z,36.39
2023-05-13T23:24:47.115Z,36.37
2023-05-13T23:27:57.804Z,35.78
2023-05-13T23:31:49.986Z,35.36
2023-05-13T23:41:32.955Z,36.05
2023-05-13T23:44:53.748Z,35.72
2023-05-13T23:52:02.455Z,35.32
2023-05-13T23:58:13.101Z,35.28
